Terminal Aerodrome Forecast
Issued by NWS

Home | Current Version | Previous Version | Graphics & Text | Print | Product List | Glossary On
Versions: 1 2 3 4 5 6 7 8 9 10 11 12 13 14 15 16 17
000
FTUS43 KABR 261700
TAFATY
TAF
KATY 261733Z 2618/2718 36014KT P6SM OVC012
      TEMPO 2619/2621 6SM -FZDZ BR
     FM271400 26006KT P6SM SCT020=

USA.gov is the U.S. government's official web portal to all federal, state and local government web resources and services.